Terminal Aerodrome Forecast
Issued by NWS Pueblo, CO

Home | Current Version | Previous Version | Text Only | Print | Product List | Glossary On
Versions: 1 2 3 4 5 6 7 8 9 10 11 12 13 14 15 16 17 18 19 20 21 22 23 24 25 26 27 28 29 30 31 32 33 34 35 36 37 38 39 40
000
FTUS45 KPUB 020520
TAFCOS
TAF
KCOS 020520Z 0206/0306 18008KT 4SM BR SCT005 SCT015 OVC030
      TEMPO 0206/0209 3SM -SHSN BKN015
     FM020900 15007KT 3SM BR VCSH SCT005 BKN015 OVC025
     FM021400 17009KT 5SM BR SCT015 BKN025 OVC035
     FM021800 18011KT P6SM SCT025 SCT035 BKN050=

USA.gov is the U.S. government's official web portal to all federal, state and local government web resources and services.